TNCE Airport Information

Runway Information
Runway 06 Length 4265 ft width 100 ft
Elevation 129 ft Threshold ft Heading 50
Runway 24 Length 4265 ft Width 100 ft
Elevation 95 ft Threshold ft Heading 230
Airport Frequencies
Type INFO Name FIS Frequency 118.1 MHZ
Airport Navaids
Type NDB Name St.eEstatius Frequency 235 KHZ
Airport Weather Information & NOTAM
ADDS - METARS form results

(2206 UTC 18 August 2022)
Data provider http://aviationweather.gov/metar/data/
 
METAR text: TNCE 182155Z AUTO 07013KT 040V100 //// // ///////// 29/24 Q1013 RE//
Conditions at: TNCE (FDR ARPT/ORANJES, BQ) observed 2155 UTC 18 August 2022
Temperature: 29.0°C (84°F)
Dewpoint: 24.0°C (75°F) [RH = 74%]
Pressure (altimeter): 29.91 inches Hg (1013.0 mb)
Winds: from the ENE (70 degrees) at 15 MPH (13 knots; 6.7 m/s)
Visibility: missing
Ceiling: unknown
Clouds: missing
Weather: no significant weather observed at this time